Time;durP1;ratioP1;P1;durP2;ratioP2;P2;SDS_P1;SDS_P2;PMS_P1;PMS_P2;Temp;Humidity;BMP_temperature;BMP_pressure;BME280_temperature;BME280_humidity;BME280_pressure;Samples;Min_cycle;Max_cycle;Signal;HPM_P1;HPM_P2
2023/10/22 00:02:18;;;;;;;1.97;0.90;;;;;;;10.08;97.91;99511.88;5071086;28;20233;-78
2023/10/22 00:04:45;;;;;;;2.57;1.00;;;;;;;10.04;98.39;99510.41;5065446;28;20202;-78
2023/10/22 00:07:14;;;;;;;2.07;0.83;;;;;;;10.04;98.41;99515.75;5072564;28;20259;-78
2023/10/22 00:09:41;;;;;;;1.83;1.13;;;;;;;10.00;98.30;99514.31;5066308;28;20205;-78
2023/10/22 00:12:08;;;;;;;1.83;0.90;;;;;;;10.00;98.83;99522.28;5066706;28;20237;-77
2023/10/22 00:14:35;;;;;;;2.07;1.00;;;;;;;10.01;99.17;99516.00;5071094;28;20220;-76
2023/10/22 00:17:01;;;;;;;3.53;1.10;;;;;;;9.99;98.85;99512.63;5064728;28;20212;-77
2023/10/22 00:19:28;;;;;;;3.97;1.17;;;;;;;10.00;98.91;99519.63;5070252;28;20206;-77
2023/10/22 00:21:54;;;;;;;2.13;1.13;;;;;;;9.96;99.01;99512.84;5070790;28;20520;-77
2023/10/22 00:24:21;;;;;;;1.90;1.00;;;;;;;9.93;98.83;99521.06;5061262;28;20213;-78
2023/10/22 00:26:48;;;;;;;1.97;0.90;;;;;;;9.88;98.91;99523.22;5061907;28;20216;-78
2023/10/22 00:29:15;;;;;;;2.57;0.87;;;;;;;9.85;99.52;99528.81;5067729;28;20217;-80
2023/10/22 00:31:41;;;;;;;1.60;1.20;;;;;;;9.82;99.88;99523.72;5065303;28;20231;-79
2023/10/22 00:34:08;;;;;;;2.40;1.30;;;;;;;9.78;99.75;99523.13;5066144;28;20228;-80
2023/10/22 00:36:34;;;;;;;2.50;1.10;;;;;;;9.75;100.00;99531.34;5064542;28;20693;-79
2023/10/22 00:39:01;;;;;;;3.27;1.10;;;;;;;9.75;100.00;99526.00;5067487;28;20595;-80
2023/10/22 00:41:27;;;;;;;1.97;1.10;;;;;;;9.74;100.00;99519.84;5054871;28;20287;-78
2023/10/22 00:43:55;;;;;;;5.33;1.30;;;;;;;9.73;100.00;99518.16;5061692;28;20577;-78
2023/10/22 00:46:23;;;;;;;1.70;1.10;;;;;;;9.73;100.00;99517.31;5061299;28;20259;-78
2023/10/22 00:48:50;;;;;;;2.83;1.03;;;;;;;9.70;100.00;99523.69;5064852;28;20745;-77
2023/10/22 00:51:18;;;;;;;2.33;1.17;;;;;;;9.69;100.00;99529.13;5062430;28;20239;-79
2023/10/22 00:53:46;;;;;;;3.90;1.77;;;;;;;9.67;100.00;99523.94;5065591;28;20237;-78
2023/10/22 00:56:13;;;;;;;2.63;1.10;;;;;;;9.65;100.00;99525.03;5064730;28;20201;-77
2023/10/22 00:58:41;;;;;;;1.93;1.07;;;;;;;9.61;100.00;99527.09;5069834;28;20213;-79
2023/10/22 01:01:10;;;;;;;2.33;1.10;;;;;;;9.59;100.00;99531.66;5059465;28;20712;-78
2023/10/22 01:03:37;;;;;;;3.17;1.20;;;;;;;9.57;100.00;99533.59;5063541;28;20204;-79
2023/10/22 01:06:05;;;;;;;2.30;1.20;;;;;;;9.56;100.00;99533.72;5058256;28;20208;-79
2023/10/22 01:08:32;;;;;;;2.17;0.67;;;;;;;9.56;100.00;99545.19;5057963;28;20201;-79
2023/10/22 01:11:05;;;;;;;2.60;1.10;;;;;;;9.55;100.00;99543.50;5062847;28;20232;-79
2023/10/22 01:13:31;;;;;;;2.50;0.90;;;;;;;9.54;100.00;99540.94;5062130;28;20209;-79
2023/10/22 01:15:58;;;;;;;2.93;0.87;;;;;;;9.55;100.00;99537.34;5063612;28;20204;-78
2023/10/22 01:18:26;;;;;;;1.67;1.00;;;;;;;9.52;100.00;99535.75;5066742;28;20473;-78
2023/10/22 01:20:52;;;;;;;2.10;0.90;;;;;;;9.52;100.00;99537.56;5067084;28;20219;-79
2023/10/22 01:23:21;;;;;;;3.70;1.20;;;;;;;9.50;100.00;99536.81;5070023;28;20598;-78
2023/10/22 01:25:47;;;;;;;2.50;1.17;;;;;;;9.50;100.00;99536.81;5063594;28;20209;-79
2023/10/22 01:28:13;;;;;;;4.60;1.20;;;;;;;9.47;100.00;99539.75;5072193;28;20244;-80
2023/10/22 01:30:40;;;;;;;3.17;1.20;;;;;;;9.49;100.00;99535.16;5069107;28;20232;-79
2023/10/22 01:33:07;;;;;;;3.80;1.50;;;;;;;9.46;100.00;99532.75;5070400;28;20220;-79
2023/10/22 01:35:34;;;;;;;2.80;1.00;;;;;;;9.43;100.00;99525.84;5067023;28;20251;-79
2023/10/22 01:38:00;;;;;;;4.40;1.30;;;;;;;9.42;100.00;99529.47;5058361;28;20618;-79
2023/10/22 01:40:28;;;;;;;1.67;0.80;;;;;;;9.42;100.00;99539.25;5062193;28;20225;-77
2023/10/22 01:42:55;;;;;;;3.37;0.90;;;;;;;9.40;100.00;99526.06;5060308;28;20213;-79
2023/10/22 01:45:21;;;;;;;1.53;1.00;;;;;;;9.38;100.00;99538.63;5064773;28;20204;-78
2023/10/22 01:47:48;;;;;;;3.23;0.90;;;;;;;9.37;100.00;99532.47;5057689;28;20218;-79
2023/10/22 01:50:14;;;;;;;2.03;0.90;;;;;;;9.37;100.00;99529.81;5064281;28;20673;-78
2023/10/22 01:52:41;;;;;;;2.83;1.33;;;;;;;9.38;100.00;99534.16;5065973;28;20225;-78
2023/10/22 01:55:08;;;;;;;3.83;0.93;;;;;;;9.38;100.00;99538.63;5060608;28;20202;-79
2023/10/22 01:57:36;;;;;;;0.80;0.63;;;;;;;9.37;100.00;99535.13;5061742;28;20669;-79
2023/10/22 02:00:03;;;;;;;2.90;1.10;;;;;;;9.37;100.00;99536.94;5063161;28;20597;-78
2023/10/22 02:02:29;;;;;;;1.47;0.90;;;;;;;9.36;100.00;99535.22;5065020;28;20213;-80
2023/10/22 02:04:56;;;;;;;2.20;0.80;;;;;;;9.34;100.00;99534.50;5067022;28;20214;-79
2023/10/22 02:07:22;;;;;;;4.90;0.80;;;;;;;9.31;100.00;99538.25;5072520;28;20220;-79
2023/10/22 02:09:48;;;;;;;1.80;0.73;;;;;;;9.31;100.00;99535.59;5063044;28;20231;-77
2023/10/22 02:12:16;;;;;;;4.07;1.87;;;;;;;9.30;100.00;99531.25;5065181;28;20232;-78
2023/10/22 02:14:44;;;;;;;1.33;0.90;;;;;;;9.29;100.00;99534.88;5067927;28;20209;-80
2023/10/22 02:17:10;;;;;;;1.20;0.60;;;;;;;9.28;100.00;99530.53;5070294;28;20220;-80
2023/10/22 02:19:36;;;;;;;2.60;0.70;;;;;;;9.26;100.00;99528.94;5062427;28;20585;-79
2023/10/22 02:22:04;;;;;;;3.60;0.70;;;;;;;9.25;100.00;99525.44;5075265;28;20229;-79
2023/10/22 02:24:30;;;;;;;3.63;1.00;;;;;;;9.23;100.00;99519.38;5067686;28;20205;-78
2023/10/22 02:26:57;;;;;;;2.47;0.70;;;;;;;9.21;100.00;99516.00;5068455;28;20209;-79
2023/10/22 02:29:24;;;;;;;5.10;1.00;;;;;;;9.20;100.00;99522.25;5074141;28;20216;-79
2023/10/22 02:31:52;;;;;;;3.20;0.90;;;;;;;9.21;100.00;99523.97;5074786;28;20651;-78
2023/10/22 02:34:18;;;;;;;4.13;0.80;;;;;;;9.25;100.00;99519.28;5073535;28;20227;-79
2023/10/22 02:36:44;;;;;;;2.73;0.80;;;;;;;9.28;100.00;99524.34;5073385;28;20227;-79
2023/10/22 02:39:12;;;;;;;1.60;0.50;;;;;;;9.32;100.00;99529.28;5073177;28;20213;-79
2023/10/22 02:41:38;;;;;;;3.23;1.00;;;;;;;9.35;100.00;99528.22;5072605;28;20221;-80
2023/10/22 02:44:05;;;;;;;2.80;0.90;;;;;;;9.39;100.00;99527.03;5077086;28;20221;-79
2023/10/22 02:46:32;;;;;;;1.60;0.70;;;;;;;9.42;100.00;99529.47;5075311;28;20207;-78
2023/10/22 02:48:59;;;;;;;2.00;0.97;;;;;;;9.39;100.00;99530.53;5072811;28;20687;-80
2023/10/22 02:51:26;;;;;;;5.67;0.90;;;;;;;9.38;100.00;99536.81;5073085;28;20712;-79
2023/10/22 02:53:52;;;;;;;2.17;0.40;;;;;;;9.42;100.00;99540.09;5066779;28;20225;-79
2023/10/22 02:56:19;;;;;;;2.13;0.83;;;;;;;9.44;99.73;99534.66;5068256;28;20224;-79
2023/10/22 02:58:45;;;;;;;3.43;0.63;;;;;;;9.50;99.14;99545.66;5066724;28;20200;-79
2023/10/22 03:01:16;;;;;;;1.90;0.60;;;;;;;9.53;99.32;99542.75;5069756;28;20236;-79
2023/10/22 03:03:43;;;;;;;1.83;0.50;;;;;;;9.55;98.63;99542.66;5067391;28;20198;-78
2023/10/22 03:06:12;;;;;;;2.70;0.70;;;;;;;9.59;98.56;99549.44;5075987;28;20213;-79
2023/10/22 03:08:41;;;;;;;2.30;0.60;;;;;;;9.60;98.27;99544.00;5069079;28;20596;-79
2023/10/22 03:11:14;;;;;;;0.90;0.60;;;;;;;9.64;97.81;99548.13;5070167;28;20260;-80
2023/10/22 03:13:41;;;;;;;0.70;0.60;;;;;;;9.67;97.21;99553.19;5069183;28;20217;-79
2023/10/22 03:16:10;;;;;;;2.13;1.00;;;;;;;9.71;96.94;99549.31;5070868;28;20216;-80
2023/10/22 03:18:37;;;;;;;5.33;1.40;;;;;;;9.72;96.67;99553.69;5066777;28;20205;-79
2023/10/22 03:21:11;;;;;;;2.40;0.60;;;;;;;9.77;96.80;99549.81;5073684;28;20592;-79
2023/10/22 03:23:40;;;;;;;2.60;0.60;;;;;;;9.78;96.32;99549.72;5061493;28;20260;-78
2023/10/22 03:26:08;;;;;;;3.57;0.70;;;;;;;9.83;96.16;99554.69;5078722;28;20241;-79
2023/10/22 03:28:35;;;;;;;1.13;0.60;;;;;;;9.83;96.36;99552.88;5069398;28;20494;-78
2023/10/22 03:31:03;;;;;;;1.90;0.60;;;;;;;9.80;96.23;99553.09;5074712;28;20231;-77
2023/10/22 03:33:30;;;;;;;2.13;0.70;;;;;;;9.83;96.19;99546.69;5069677;28;20222;-78
2023/10/22 03:35:57;;;;;;;2.80;0.77;;;;;;;9.84;96.06;99554.56;5070046;28;20202;-79
2023/10/22 03:38:25;;;;;;;3.80;0.70;;;;;;;9.84;95.99;99554.56;5071693;28;20210;-77
2023/10/22 03:40:57;;;;;;;1.97;0.50;;;;;;;9.90;95.45;99556.72;5068137;28;20724;-78
2023/10/22 03:43:24;;;;;;;1.90;0.60;;;;;;;9.93;95.41;99569.78;5068212;28;20202;-78
2023/10/22 03:45:50;;;;;;;3.47;0.60;;;;;;;9.94;95.25;99558.19;5068185;28;20199;-78
2023/10/22 03:48:16;;;;;;;2.17;0.50;;;;;;;9.96;95.16;99560.72;5072419;28;20225;-80
2023/10/22 03:50:44;;;;;;;0.90;0.40;;;;;;;9.98;95.05;99561.47;5078335;22;20241;-82
2023/10/22 03:53:11;;;;;;;1.73;0.50;;;;;;;10.00;94.87;99564.84;5010523;28;20333;-82
2023/10/22 03:55:39;;;;;;;1.43;0.70;;;;;;;10.02;94.54;99560.25;5002319;28;20205;-82
2023/10/22 03:58:06;;;;;;;3.90;0.60;;;;;;;10.01;94.45;99553.25;5004974;28;20220;-83
2023/10/22 04:00:32;;;;;;;3.90;1.27;;;;;;;10.03;94.05;99546.81;5006322;28;20620;-82
2023/10/22 04:02:59;;;;;;;3.73;0.70;;;;;;;10.09;93.44;99550.81;4997651;28;20238;-83
2023/10/22 04:05:25;;;;;;;0.70;0.57;;;;;;;10.10;93.30;99549.84;5002260;28;20212;-81
2023/10/22 04:07:52;;;;;;;4.73;0.50;;;;;;;10.16;93.06;99552.03;5002748;28;20199;-82
2023/10/22 04:10:18;;;;;;;4.27;0.60;;;;;;;10.17;92.99;99547.56;5008978;28;20819;-82
2023/10/22 04:12:46;;;;;;;1.73;0.70;;;;;;;10.18;92.82;99550.09;5010217;28;20598;-82
2023/10/22 04:15:13;;;;;;;3.87;0.60;;;;;;;10.25;92.20;99546.00;5006776;28;20205;-82
2023/10/22 04:17:40;;;;;;;2.20;0.67;;;;;;;10.30;91.70;99554.47;5005969;28;20203;-82
2023/10/22 04:20:08;;;;;;;1.57;0.70;;;;;;;10.31;91.57;99545.53;5002938;28;20243;-82
2023/10/22 04:22:34;;;;;;;2.60;0.50;;;;;;;10.34;91.31;99545.28;5004089;28;20217;-82
2023/10/22 04:25:00;;;;;;;1.87;0.70;;;;;;;10.39;91.06;99548.41;5004328;28;20220;-82
2023/10/22 04:27:27;;;;;;;4.97;0.73;;;;;;;10.42;90.76;99550.81;5000998;28;20205;-83
2023/10/22 04:29:55;;;;;;;4.70;0.87;;;;;;;10.47;90.25;99552.28;4997643;28;20206;-82
2023/10/22 04:32:22;;;;;;;3.70;0.60;;;;;;;10.52;90.05;99550.09;4998996;28;20229;-82
2023/10/22 04:34:48;;;;;;;3.90;0.87;;;;;;;10.56;89.67;99543.56;5030104;28;20207;-82
2023/10/22 04:37:17;;;;;;;1.77;0.70;;;;;;;10.56;89.22;99543.56;4997460;28;20217;-82
2023/10/22 04:39:43;;;;;;;3.53;0.80;;;;;;;10.56;89.56;99546.22;5008149;28;20236;-83
2023/10/22 04:42:10;;;;;;;2.80;0.60;;;;;;;10.60;89.00;99552.97;5007155;28;20233;-82
2023/10/22 04:44:36;;;;;;;2.90;0.50;;;;;;;10.64;88.93;99551.75;5000963;28;20292;-83
2023/10/22 04:47:04;;;;;;;2.77;0.50;;;;;;;10.66;88.89;99547.16;5005569;28;20207;-82
2023/10/22 04:49:31;;;;;;;1.27;0.70;;;;;;;10.64;88.91;99546.44;5002084;28;20204;-82
2023/10/22 04:51:58;;;;;;;3.47;0.60;;;;;;;10.62;89.21;99543.91;5008822;28;20231;-82
2023/10/22 04:54:25;;;;;;;2.13;0.70;;;;;;;10.60;89.10;99544.97;5024075;28;20244;-82
2023/10/22 04:56:51;;;;;;;2.27;0.60;;;;;;;10.59;89.36;99560.13;5002431;28;20206;-83
2023/10/22 04:59:19;;;;;;;4.20;0.80;;;;;;;10.58;89.22;99562.91;5004009;28;20810;-82
2023/10/22 05:01:45;;;;;;;0.80;0.43;;;;;;;10.59;89.14;99553.94;5007309;28;20216;-82
2023/10/22 05:04:13;;;;;;;3.70;0.90;;;;;;;10.55;89.44;99548.03;5007692;28;20219;-83
2023/10/22 05:06:39;;;;;;;1.70;0.60;;;;;;;10.53;89.56;99557.97;5005671;28;20209;-81
2023/10/22 05:09:06;;;;;;;1.90;0.60;;;;;;;10.54;89.60;99553.50;5035168;28;20208;-82
2023/10/22 05:11:32;;;;;;;4.13;0.47;;;;;;;10.53;89.78;99557.97;4993605;28;20220;-82
2023/10/22 05:13:59;;;;;;;4.03;0.87;;;;;;;10.56;89.57;99548.88;5005725;28;20229;-82
2023/10/22 05:16:26;;;;;;;1.63;0.50;;;;;;;10.54;89.53;99557.00;5008893;28;20219;-82
2023/10/22 05:18:55;;;;;;;2.07;0.50;;;;;;;10.56;89.65;99567.53;5001811;28;20695;-83
2023/10/22 05:21:23;;;;;;;1.33;0.70;;;;;;;10.55;89.20;99579.16;4999895;28;20235;-82
2023/10/22 05:23:50;;;;;;;2.30;0.50;;;;;;;10.62;89.00;99572.34;4997430;28;20223;-82
2023/10/22 05:26:16;;;;;;;2.90;0.90;;;;;;;10.62;88.84;99575.00;5006972;28;20233;-81
2023/10/22 05:28:42;;;;;;;2.03;0.70;;;;;;;10.63;88.93;99584.69;5006434;28;20208;-83
2023/10/22 05:31:14;;;;;;;4.23;1.00;;;;;;;10.63;89.20;99574.88;5000375;28;20810;-83
2023/10/22 05:33:40;;;;;;;1.77;0.50;;;;;;;10.66;89.04;99573.78;5005427;28;20236;-82
2023/10/22 05:36:14;;;;;;;2.00;0.63;;;;;;;10.69;88.76;99571.72;5009400;28;20216;-82
2023/10/22 05:38:42;;;;;;;1.60;0.50;;;;;;;10.69;88.57;99584.19;5001936;28;20215;-82
2023/10/22 05:41:09;;;;;;;1.90;0.60;;;;;;;10.70;88.93;99583.22;5006189;28;20207;-82
2023/10/22 05:43:35;;;;;;;3.80;0.80;;;;;;;10.70;88.82;99585.91;5003443;28;20312;-82
2023/10/22 05:46:02;;;;;;;1.97;1.20;;;;;;;10.71;88.74;99590.25;5003692;28;20212;-81
2023/10/22 05:48:28;;;;;;;1.67;0.60;;;;;;;10.71;88.47;99593.75;5003664;28;20205;-82
2023/10/22 05:50:55;;;;;;;3.53;0.77;;;;;;;10.70;88.75;99596.53;5004003;28;20217;-83
2023/10/22 05:53:21;;;;;;;3.63;0.70;;;;;;;10.70;88.49;99608.03;4996997;28;20225;-83
2023/10/22 05:55:57;;;;;;;2.80;0.80;;;;;;;10.70;88.58;99623.19;5005984;28;20225;-82
2023/10/22 05:58:24;;;;;;;3.27;0.60;;;;;;;10.72;88.58;99629.22;5005937;28;20611;-82
2023/10/22 06:00:50;;;;;;;2.97;0.70;;;;;;;10.73;88.60;99620.28;5000262;28;20211;-82
2023/10/22 06:03:17;;;;;;;4.93;0.70;;;;;;;10.72;88.07;99635.41;5002035;28;20232;-82
2023/10/22 06:05:44;;;;;;;1.20;0.60;;;;;;;10.75;88.25;99632.47;5017248;28;20601;-82
2023/10/22 06:08:10;;;;;;;2.07;0.70;;;;;;;10.78;88.30;99642.03;4998214;28;20756;-82
2023/10/22 06:10:40;;;;;;;2.17;0.87;;;;;;;10.78;87.92;99636.72;4996264;28;20615;-82
2023/10/22 06:13:08;;;;;;;1.77;0.63;;;;;;;10.81;88.32;99638.28;5007007;28;20241;-82
2023/10/22 06:15:36;;;;;;;4.53;0.70;;;;;;;10.76;88.41;99636.81;4998746;28;20214;-82
2023/10/22 06:18:02;;;;;;;3.27;0.80;;;;;;;10.80;88.18;99629.44;5000443;28;20245;-82
2023/10/22 06:20:30;;;;;;;1.27;0.53;;;;;;;10.76;88.63;99634.16;5002306;28;20211;-82
2023/10/22 06:22:57;;;;;;;2.70;0.60;;;;;;;10.81;88.50;99632.94;4998895;28;20227;-82
2023/10/22 06:25:23;;;;;;;3.80;0.80;;;;;;;10.77;88.78;99643.00;5023161;28;20203;-82
2023/10/22 06:27:50;;;;;;;1.33;0.60;;;;;;;10.81;88.60;99639.13;5002141;28;20576;-83
2023/10/22 06:30:22;;;;;;;2.13;0.60;;;;;;;10.80;88.90;99645.44;4996164;28;20213;-82
2023/10/22 06:32:48;;;;;;;2.93;0.77;;;;;;;10.81;89.19;99644.47;5001283;28;20275;-83
2023/10/22 06:35:15;;;;;;;2.50;0.50;;;;;;;10.82;89.28;99646.16;5004912;28;20223;-82
2023/10/22 06:37:41;;;;;;;2.60;0.80;;;;;;;10.86;89.01;99652.09;4997565;28;20214;-82
2023/10/22 06:40:09;;;;;;;2.13;0.80;;;;;;;10.84;89.51;99654.88;5011003;28;20688;-83
2023/10/22 06:42:35;;;;;;;1.53;0.70;;;;;;;10.84;89.82;99654.03;5001449;28;21963;-83
2023/10/22 06:45:03;;;;;;;3.97;0.70;;;;;;;10.87;89.81;99661.78;5003668;28;20203;-82
2023/10/22 06:47:35;;;;;;;2.87;0.90;;;;;;;10.89;90.08;99663.34;5003240;28;20702;-82
2023/10/22 06:50:01;;;;;;;2.73;0.60;;;;;;;10.93;90.23;99662.09;5008246;28;20234;-82
2023/10/22 06:52:28;;;;;;;2.07;0.67;;;;;;;10.96;89.86;99664.53;5002925;28;20238;-83
2023/10/22 06:54:54;;;;;;;1.90;0.70;;;;;;;11.01;89.96;99672.16;5000163;28;20219;-82
2023/10/22 06:57:21;;;;;;;1.23;0.60;;;;;;;11.05;90.07;99671.78;5004636;28;20308;-82
2023/10/22 06:59:48;;;;;;;4.80;1.00;;;;;;;11.05;89.99;99682.44;5002081;28;20216;-82
2023/10/22 07:02:15;;;;;;;1.47;0.60;;;;;;;11.09;90.09;99681.25;5006992;28;20251;-82
2023/10/22 07:04:44;;;;;;;2.30;0.70;;;;;;;11.11;90.09;99673.94;5004154;28;20213;-82
2023/10/22 07:07:11;;;;;;;2.57;0.67;;;;;;;11.16;90.27;99673.59;5003739;28;20226;-82
2023/10/22 07:09:37;;;;;;;1.60;0.70;;;;;;;11.20;89.93;99683.03;5002474;28;20215;-83
2023/10/22 07:12:04;;;;;;;1.40;0.70;;;;;;;11.25;89.84;99680.84;5007572;28;20231;-82
2023/10/22 07:14:31;;;;;;;4.87;0.73;;;;;;;11.27;90.16;99683.38;5002533;28;20230;-82
2023/10/22 07:16:57;;;;;;;4.17;1.07;;;;;;;11.34;89.99;99692.56;5006818;28;20671;-82
2023/10/22 07:19:24;;;;;;;2.63;0.70;;;;;;;11.37;90.07;99694.97;5004322;28;20266;-82
2023/10/22 07:21:52;;;;;;;1.57;0.70;;;;;;;11.43;89.59;99692.66;5005955;28;20213;-81
2023/10/22 07:24:18;;;;;;;2.40;0.50;;;;;;;11.46;89.32;99699.56;4997115;28;20302;-83
2023/10/22 07:26:45;;;;;;;2.13;0.63;;;;;;;11.50;89.42;99693.00;5006767;28;20404;-83
2023/10/22 07:29:12;;;;;;;2.73;0.73;;;;;;;11.53;89.08;99695.41;5007890;28;20205;-83
2023/10/22 07:31:39;;;;;;;2.23;0.60;;;;;;;11.55;89.14;99704.13;5007553;28;20720;-83
2023/10/22 07:34:05;;;;;;;1.87;0.70;;;;;;;11.53;89.52;99702.56;5006430;28;20230;-83
2023/10/22 07:36:32;;;;;;;1.97;0.50;;;;;;;11.60;88.72;99707.28;5000154;28;20780;-82
2023/10/22 07:38:59;;;;;;;2.80;0.50;;;;;;;11.63;88.47;99712.38;5007008;28;20228;-82
2023/10/22 07:41:26;;;;;;;4.13;1.60;;;;;;;11.62;88.46;99710.66;5001756;28;20215;-83
2023/10/22 07:43:53;;;;;;;2.50;1.00;;;;;;;11.68;88.90;99714.63;4999075;28;20310;-82
2023/10/22 07:46:19;;;;;;;2.37;0.80;;;;;;;11.67;89.75;99723.59;5007859;28;20663;-82
2023/10/22 07:48:46;;;;;;;4.03;1.67;;;;;;;11.71;89.00;99714.38;5003094;28;20251;-83
2023/10/22 07:51:14;;;;;;;3.00;1.50;;;;;;;11.78;87.73;99713.78;5005200;28;20214;-82
2023/10/22 07:53:40;;;;;;;3.37;1.53;;;;;;;11.80;88.20;99711.00;5006629;28;20237;-83
2023/10/22 07:56:09;;;;;;;2.47;0.70;;;;;;;11.86;87.74;99715.81;5006795;28;20218;-83
2023/10/22 07:58:36;;;;;;;1.67;0.70;;;;;;;11.88;87.70;99713.00;5004244;28;20215;-82
2023/10/22 08:01:03;;;;;;;2.17;1.03;;;;;;;11.90;87.17;99719.91;5021222;28;20213;-83
2023/10/22 08:03:31;;;;;;;1.47;0.50;;;;;;;11.93;86.93;99711.66;5031203;28;20218;-82
2023/10/22 08:05:59;;;;;;;1.10;0.50;;;;;;;11.95;87.01;99716.88;5007306;28;20221;-82
2023/10/22 08:08:25;;;;;;;3.23;0.50;;;;;;;11.99;87.19;99720.97;5015373;28;20245;-82
2023/10/22 08:10:52;;;;;;;1.80;0.90;;;;;;;12.00;87.09;99717.34;5007755;28;20210;-82
2023/10/22 08:13:20;;;;;;;2.03;0.70;;;;;;;12.00;87.03;99723.50;5005954;28;20253;-82
2023/10/22 08:15:47;;;;;;;2.20;1.27;;;;;;;12.02;87.26;99713.53;5015190;28;20214;-82
2023/10/22 08:18:13;;;;;;;1.40;0.50;;;;;;;12.05;86.48;99717.78;5004733;28;20207;-83
2023/10/22 08:20:40;;;;;;;4.30;0.60;;;;;;;12.06;86.84;99719.47;5005521;28;20677;-83
2023/10/22 08:23:06;;;;;;;2.73;0.90;;;;;;;12.09;86.25;99727.22;4999776;28;20705;-82
2023/10/22 08:25:33;;;;;;;1.40;0.77;;;;;;;12.05;86.42;99723.97;5002510;28;20210;-83
2023/10/22 08:27:59;;;;;;;1.20;0.50;;;;;;;12.09;86.87;99729.91;5004694;28;20201;-83
2023/10/22 08:30:27;;;;;;;2.23;0.50;;;;;;;12.12;86.17;99730.50;5004381;28;20221;-83
2023/10/22 08:32:54;;;;;;;2.33;0.40;;;;;;;12.17;86.47;99743.47;5005701;28;20236;-82
2023/10/22 08:35:20;;;;;;;2.13;0.73;;;;;;;12.20;86.87;99743.16;5021005;28;20234;-83
2023/10/22 08:37:47;;;;;;;1.23;0.50;;;;;;;12.25;86.71;99751.66;5007679;28;20206;-82
2023/10/22 08:40:14;;;;;;;1.57;0.53;;;;;;;12.27;86.56;99756.84;5004311;28;20248;-83
2023/10/22 08:42:41;;;;;;;2.20;0.73;;;;;;;12.29;85.81;99753.09;5007315;28;20722;-83
2023/10/22 08:45:09;;;;;;;2.33;0.60;;;;;;;12.33;86.82;99756.34;5007949;28;20237;-82
2023/10/22 08:47:37;;;;;;;1.07;0.50;;;;;;;12.41;86.13;99756.53;5000534;28;20210;-83
2023/10/22 08:50:05;;;;;;;1.70;0.60;;;;;;;12.45;86.10;99769.50;5013724;28;20405;-83
2023/10/22 08:52:33;;;;;;;1.13;0.53;;;;;;;12.49;86.42;99768.28;5002348;28;20237;-82
2023/10/22 08:55:00;;;;;;;2.80;0.70;;;;;;;12.53;86.72;99771.53;5002892;28;20229;-82
2023/10/22 08:57:27;;;;;;;1.80;0.40;;;;;;;12.61;86.41;99769.03;5005329;28;20588;-82
2023/10/22 08:59:53;;;;;;;1.90;0.40;;;;;;;12.67;86.22;99773.88;5006621;28;20245;-83
2023/10/22 09:02:21;;;;;;;3.70;1.30;;;;;;;12.70;85.70;99786.13;5000648;28;20658;-83
2023/10/22 09:04:49;;;;;;;4.10;1.10;;;;;;;12.76;85.54;99782.88;5010848;28;20664;-84
2023/10/22 09:07:15;;;;;;;1.57;0.50;;;;;;;12.82;84.90;99787.72;5010998;28;20214;-84
2023/10/22 09:09:43;;;;;;;1.83;0.70;;;;;;;12.88;85.18;99791.69;5004216;28;20218;-83
2023/10/22 09:12:10;;;;;;;2.10;0.70;;;;;;;12.94;84.02;99797.34;5003718;28;20669;-83
2023/10/22 09:14:37;;;;;;;2.67;0.50;;;;;;;12.93;84.38;99802.81;5002370;28;20582;-82
2023/10/22 09:17:15;;;;;;;1.23;0.80;;;;;;;12.95;84.34;99808.88;5011055;28;20214;-83
2023/10/22 09:19:46;;;;;;;3.03;0.80;;;;;;;12.98;84.82;99806.78;5008944;28;20203;-83
2023/10/22 09:22:21;;;;;;;1.63;0.50;;;;;;;13.00;83.95;99806.66;5005095;28;20230;-83
2023/10/22 09:24:49;;;;;;;1.10;0.43;;;;;;;13.04;83.46;99819.63;4998349;28;20211;-83
2023/10/22 09:27:23;;;;;;;1.43;0.50;;;;;;;13.06;83.06;99817.69;5006720;28;20215;-83
2023/10/22 09:29:50;;;;;;;1.00;0.60;;;;;;;13.07;83.83;99822.06;5005024;28;20204;-83
2023/10/22 09:32:17;;;;;;;2.47;0.60;;;;;;;13.12;82.54;99822.47;5005830;28;20237;-84
2023/10/22 09:34:47;;;;;;;1.40;0.47;;;;;;;13.15;82.54;99827.59;4998856;28;20230;-83
2023/10/22 09:37:15;;;;;;;1.63;0.70;;;;;;;13.22;81.75;99824.41;5019553;28;20202;-84
2023/10/22 09:39:43;;;;;;;1.23;0.43;;;;;;;13.23;82.41;99829.59;5015163;28;20203;-85
2023/10/22 09:42:11;;;;;;;2.40;0.60;;;;;;;13.28;82.08;99831.84;5009023;28;20275;-84
2023/10/22 09:44:40;;;;;;;2.43;0.50;;;;;;;13.30;81.64;99838.78;5009653;28;20211;-83
2023/10/22 09:47:09;;;;;;;1.87;0.70;;;;;;;13.34;81.60;99844.69;5006776;28;20290;-84
2023/10/22 09:49:38;;;;;;;2.17;0.80;;;;;;;13.39;82.13;99853.19;5011903;28;20209;-83
2023/10/22 09:52:07;;;;;;;1.73;0.80;;;;;;;13.42;81.45;99847.56;5014632;28;20242;-84
2023/10/22 09:54:38;;;;;;;1.07;0.60;;;;;;;13.46;81.04;99852.50;5004806;28;20279;-82
2023/10/22 09:57:10;;;;;;;1.53;0.50;;;;;;;13.49;80.83;99862.06;5005322;28;20230;-83
2023/10/22 09:59:40;;;;;;;2.17;0.70;;;;;;;13.50;81.27;99869.13;5000640;28;20897;-83
2023/10/22 10:02:10;;;;;;;2.20;0.70;;;;;;;13.52;81.07;99867.16;4999042;28;20227;-83
2023/10/22 10:04:37;;;;;;;2.10;0.50;;;;;;;13.57;81.02;99869.44;5022985;28;20210;-84
2023/10/22 10:07:04;;;;;;;1.17;0.53;;;;;;;13.58;81.36;99880.00;5007871;28;20211;-83
2023/10/22 10:09:33;;;;;;;2.07;0.50;;;;;;;13.62;80.48;99877.88;5012156;28;20202;-84
2023/10/22 10:12:05;;;;;;;2.47;0.70;;;;;;;13.64;80.95;99886.63;5009602;28;20216;-84
2023/10/22 10:14:41;;;;;;;1.97;0.90;;;;;;;13.66;81.35;99890.03;5007952;28;20600;-83
2023/10/22 10:17:09;;;;;;;2.50;0.70;;;;;;;13.71;81.64;99888.66;5012506;28;20285;-84
2023/10/22 10:19:36;;;;;;;4.17;0.60;;;;;;;13.78;81.39;99889.81;5009197;28;20218;-83
2023/10/22 10:22:03;;;;;;;1.97;0.50;;;;;;;13.82;82.03;99891.19;5009241;28;20232;-83
2023/10/22 10:24:30;;;;;;;1.17;0.70;;;;;;;13.84;81.64;99885.72;5016909;28;20214;-85
2023/10/22 10:27:26;;;;;;;2.17;0.70;;;;;;;13.89;82.69;99896.88;5014698;28;20229;-84
2023/10/22 10:30:23;;;;;;;0.90;0.67;;;;;;;14.00;83.01;99893.22;5003554;28;20210;-84
2023/10/22 10:32:51;;;;;;;3.40;1.03;;;;;;;14.06;81.82;99890.00;5047343;28;20222;-83
2023/10/22 10:35:19;;;;;;;1.30;0.57;;;;;;;14.13;81.49;99889.31;5031461;28;20227;-84
2023/10/22 10:38:20;;;;;;;1.10;0.50;;;;;;;14.24;80.85;99891.88;5014523;28;20207;-84
2023/10/22 10:40:48;;;;;;;1.30;0.43;;;;;;;14.31;79.93;99908.25;5004820;28;20281;-84
2023/10/22 10:43:16;;;;;;;0.87;0.50;;;;;;;14.38;79.52;99904.00;5005812;28;20412;-85
2023/10/22 10:46:20;;;;;;;2.00;0.47;;;;;;;14.45;78.97;99907.00;5009175;28;20200;-84
2023/10/22 10:48:48;;;;;;;2.50;0.50;;;;;;;14.50;79.19;99908.31;5013396;28;20211;-84
2023/10/22 10:51:16;;;;;;;2.07;0.50;;;;;;;14.61;78.64;99918.03;5017809;28;20704;-84
2023/10/22 10:54:19;;;;;;;2.13;0.50;;;;;;;14.65;79.29;99922.13;5008966;28;20221;-85
2023/10/22 10:56:58;;;;;;;1.90;0.80;;;;;;;14.70;78.78;99924.34;5006636;28;20696;-83
2023/10/22 10:59:30;;;;;;;2.40;0.40;;;;;;;14.79;77.91;99920.84;5019576;28;20299;-82
2023/10/22 11:02:09;;;;;;;1.50;0.57;;;;;;;14.78;77.49;99932.56;5011433;28;20204;-82
2023/10/22 11:04:37;;;;;;;0.97;0.60;;;;;;;14.78;78.17;99932.56;5006350;28;20656;-83
2023/10/22 11:07:04;;;;;;;2.13;0.80;;;;;;;14.86;77.84;99921.97;5008768;28;20207;-84
2023/10/22 11:09:33;;;;;;;2.37;0.50;;;;;;;14.94;76.89;99924.78;5005592;28;20210;-83
2023/10/22 11:12:03;;;;;;;2.03;0.50;;;;;;;14.95;76.30;99918.44;5021646;28;20209;-84
2023/10/22 11:14:32;;;;;;;1.43;0.50;;;;;;;14.99;76.87;99935.94;5004003;28;20216;-84
2023/10/22 11:16:59;;;;;;;1.87;0.50;;;;;;;15.03;75.88;99926.63;5011173;28;20665;-83
2023/10/22 11:19:27;;;;;;;1.93;0.40;;;;;;;15.01;74.14;99917.88;5009339;28;20209;-83
2023/10/22 11:21:54;;;;;;;2.57;0.70;;;;;;;14.96;72.92;99925.50;5006990;28;20228;-84
2023/10/22 11:24:22;;;;;;;6.17;2.10;;;;;;;14.93;73.90;99925.75;5013058;28;20205;-81
2023/10/22 11:26:50;;;;;;;1.10;0.40;;;;;;;14.95;74.09;99939.88;5005952;28;20220;-80
2023/10/22 11:29:16;;;;;;;3.00;1.80;;;;;;;14.98;73.81;99928.88;5015451;28;20604;-81
2023/10/22 11:31:52;;;;;;;1.00;0.50;;;;;;;15.00;72.64;99934.94;5027024;28;20213;-81
2023/10/22 11:34:19;;;;;;;1.93;0.70;;;;;;;14.97;70.46;99943.28;5010894;28;20207;-80
2023/10/22 11:36:46;;;;;;;2.03;0.50;;;;;;;14.91;69.92;99938.47;5012505;28;20211;-80
2023/10/22 11:39:17;;;;;;;2.00;0.50;;;;;;;14.85;69.87;99950.63;5008990;28;20205;-81